createdAt,value
2023-01-04T00:00:37.011Z,45.60
2023-01-04T00:05:44.638Z,44.10
2023-01-04T00:10:51.250Z,44.97
2023-01-04T00:16:07.148Z,44.50
2023-01-04T00:21:13.990Z,45.70
2023-01-04T00:26:24.885Z,45.48
2023-01-04T00:31:31.667Z,44.48
2023-01-04T00:42:01.025Z,42.57
2023-01-04T00:47:03.008Z,41.80
2023-01-04T00:52:11.115Z,43.20
2023-01-04T00:57:18.599Z,41.73
2023-01-04T01:02:25.291Z,42.13
2023-01-04T01:07:31.873Z,42.07
2023-01-04T01:12:38.684Z,42.47
2023-01-04T01:17:45.122Z,42.33
2023-01-04T01:27:57.770Z,42.53
2023-01-04T01:38:12.870Z,45.48
2023-01-04T01:43:23.516Z,46.35
2023-01-04T01:48:31.654Z,42.27
2023-01-04T01:53:41.434Z,43.57
2023-01-04T01:58:51.995Z,45.20
2023-01-04T02:03:58.929Z,44.73
2023-01-04T02:09:05.618Z,47.05
2023-01-04T02:14:28.625Z,45.43
2023-01-04T02:19:57.657Z,44.73
2023-01-04T02:25:40.216Z,44.37
2023-01-04T02:30:57.341Z,44.40
2023-01-04T02:36:11.304Z,43.20
2023-01-04T02:41:57.754Z,45.20
2023-01-04T02:47:10.732Z,45.20
2023-01-04T02:52:17.899Z,44.05
2023-01-04T02:57:49.891Z,42.00
2023-01-04T03:03:27.381Z,42.60
2023-01-04T03:08:45.158Z,41.53
2023-01-04T03:13:52.339Z,42.45
2023-01-04T03:24:27.064Z,40.47
2023-01-04T03:30:06.891Z,40.73
2023-01-04T03:35:16.065Z,39.23
2023-01-04T03:40:46.510Z,40.65
2023-01-04T03:46:30.400Z,40.77
2023-01-04T03:51:39.303Z,40.13
2023-01-04T03:56:47.524Z,39.57
2023-01-04T04:01:54.482Z,40.53
2023-01-04T04:07:19.162Z,39.93
2023-01-04T04:12:25.474Z,40.60
2023-01-04T04:17:32.842Z,39.20
2023-01-04T04:22:39.351Z,39.13
2023-01-04T04:32:51.110Z,45.80
2023-01-04T04:37:57.452Z,44.03
2023-01-04T04:43:04.625Z,42.93
2023-01-04T04:48:11.304Z,41.20
2023-01-04T04:53:17.869Z,42.05
2023-01-04T04:58:24.227Z,40.67
2023-01-04T05:03:31.453Z,43.48
2023-01-04T05:08:37.812Z,42.20
2023-01-04T05:18:49.589Z,39.23
2023-01-04T05:23:56.021Z,39.83
2023-01-04T05:29:02.491Z,37.25
2023-01-04T05:34:09.084Z,38.60
2023-01-04T05:39:16.946Z,38.90
2023-01-04T05:44:23.624Z,38.30
2023-01-04T05:49:30.640Z,39.57
2023-01-04T05:54:37.443Z,40.43
2023-01-04T05:59:44.062Z,41.75
2023-01-04T06:04:58.103Z,40.45
2023-01-04T06:09:59.444Z,38.93
2023-01-04T06:15:07.126Z,38.23
2023-01-04T06:20:13.881Z,39.05
2023-01-04T06:25:20.350Z,38.93
2023-01-04T06:30:27.721Z,38.35
2023-01-04T06:35:36.440Z,37.23
2023-01-04T06:40:42.498Z,40.67
2023-01-04T06:45:49.081Z,40.27
2023-01-04T06:50:55.991Z,40.10
2023-01-04T06:56:03.015Z,38.53
2023-01-04T07:01:11.154Z,37.37
2023-01-04T07:06:18.160Z,37.40
2023-01-04T07:11:24.848Z,37.47
2023-01-04T07:16:31.618Z,42.48
2023-01-04T07:21:38.014Z,48.68
2023-01-04T07:26:44.505Z,38.73
2023-01-04T07:31:53.990Z,38.60
2023-01-04T07:37:00.749Z,41.93
2023-01-04T07:42:07.027Z,45.00
2023-01-04T07:47:14.412Z,45.08
2023-01-04T07:52:20.803Z,43.10
2023-01-04T07:57:27.673Z,41.83
2023-01-04T08:02:34.627Z,42.07
2023-01-04T08:07:42.006Z,42.57
2023-01-04T08:12:48.256Z,42.48
2023-01-04T08:17:56.960Z,46.73
2023-01-04T08:23:04.672Z,45.12
2023-01-04T08:28:14.540Z,46.92
2023-01-04T08:33:21.015Z,45.90
2023-01-04T08:38:58.648Z,44.13
2023-01-04T08:43:37.558Z,46.87
2023-01-04T08:48:44.439Z,44.70
2023-01-04T08:53:50.845Z,44.53
2023-01-04T08:58:57.776Z,45.30
2023-01-04T09:04:05.208Z,46.25
2023-01-04T09:09:13.173Z,45.57
2023-01-04T09:14:19.514Z,45.33
2023-01-04T09:19:25.694Z,45.43
2023-01-04T09:24:36.963Z,45.33
2023-01-04T09:29:44.050Z,45.57
2023-01-04T09:34:50.812Z,45.83
2023-01-04T09:39:57.089Z,46.33
2023-01-04T09:45:24.663Z,45.83
2023-01-04T09:50:50.265Z,46.05
2023-01-04T09:56:09.915Z,45.90
2023-01-04T10:01:39.134Z,45.83
2023-01-04T10:06:45.678Z,46.23
2023-01-04T10:12:23.994Z,47.07
2023-01-04T10:19:59.894Z,46.77
2023-01-04T10:23:43.683Z,46.63
2023-01-04T10:29:22.421Z,46.57
2023-01-04T10:34:43.074Z,47.00
2023-01-04T10:39:55.866Z,46.33
2023-01-04T10:45:27.757Z,46.13
2023-01-04T10:51:09.824Z,45.67
2023-01-04T10:56:33.386Z,45.75
2023-01-04T11:01:53.752Z,45.55
2023-01-04T11:07:10.423Z,45.60
2023-01-04T11:12:20.364Z,45.65
2023-01-04T11:17:27.444Z,45.73
2023-01-04T11:22:47.624Z,46.23
2023-01-04T11:28:09.689Z,46.00
2023-01-04T11:33:22.133Z,45.87
2023-01-04T11:38:31.227Z,45.55
2023-01-04T11:43:40.637Z,45.93
2023-01-04T11:48:49.697Z,45.23
2023-01-04T11:54:18.816Z,45.30
2023-01-04T11:59:25.952Z,46.20
2023-01-04T12:04:35.702Z,45.70
2023-01-04T12:09:41.397Z,45.57
2023-01-04T12:14:51.265Z,45.83
2023-01-04T12:19:58.801Z,46.17
2023-01-04T12:25:26.245Z,45.67
2023-01-04T12:30:41.977Z,45.45
2023-01-04T12:36:13.331Z,45.70
2023-01-04T12:41:25.926Z,45.83
2023-01-04T12:46:54.694Z,45.70
2023-01-04T12:52:37.831Z,45.37
2023-01-04T12:57:41.179Z,45.70
2023-01-04T13:02:52.526Z,45.17
2023-01-04T13:08:03.833Z,45.13
2023-01-04T13:13:43.608Z,45.37
2023-01-04T13:18:57.018Z,45.10
2023-01-04T13:24:25.290Z,45.67
2023-01-04T13:29:34.807Z,45.88
2023-01-04T13:35:01.530Z,46.07
2023-01-04T13:40:36.493Z,45.67
2023-01-04T13:46:16.663Z,46.03
2023-01-04T13:51:36.920Z,47.03
2023-01-04T13:56:43.157Z,47.20
2023-01-04T14:01:51.447Z,45.85
2023-01-04T14:07:01.234Z,46.30
2023-01-04T14:12:19.760Z,45.40
2023-01-04T14:17:48.119Z,46.27
2023-01-04T14:22:54.314Z,46.83
2023-01-04T14:28:30.525Z,46.47
2023-01-04T14:33:43.905Z,46.23
2023-01-04T14:39:12.820Z,46.77
2023-01-04T14:44:24.367Z,47.40
2023-01-04T14:49:31.544Z,46.77
2023-01-04T14:59:46.193Z,46.10
2023-01-04T15:04:52.551Z,48.13
2023-01-04T15:09:59.106Z,46.85
2023-01-04T15:20:14.472Z,46.73
2023-01-04T15:25:20.965Z,46.87
2023-01-04T15:30:27.582Z,46.68
2023-01-04T15:35:34.947Z,46.75
2023-01-04T15:40:41.227Z,46.70
2023-01-04T15:45:48.660Z,47.53
2023-01-04T15:50:54.795Z,47.37
2023-01-04T15:56:10.884Z,46.85
2023-01-04T16:01:18.258Z,47.50
2023-01-04T16:06:27.420Z,47.30
2023-01-04T16:11:34.980Z,47.60
2023-01-04T16:21:46.573Z,47.03
2023-01-04T16:26:54.427Z,46.53
2023-01-04T16:32:01.544Z,48.47
2023-01-04T16:37:08.100Z,46.80
2023-01-04T16:42:15.547Z,46.33
2023-01-04T16:47:23.297Z,47.95
2023-01-04T16:52:30.208Z,54.90
2023-01-04T16:57:37.406Z,48.20
2023-01-04T17:02:43.806Z,47.90
2023-01-04T17:07:50.343Z,50.20
2023-01-04T17:12:57.429Z,51.03
2023-01-04T17:18:04.344Z,50.57
2023-01-04T17:23:11.031Z,47.73
2023-01-04T17:28:24.495Z,46.90
2023-01-04T17:33:27.048Z,48.75
2023-01-04T17:38:34.373Z,47.90
2023-01-04T17:43:43.258Z,48.53
2023-01-04T17:49:10.313Z,48.30
2023-01-04T17:54:04.214Z,47.30
2023-01-04T17:59:13.089Z,47.60
2023-01-04T18:04:19.587Z,47.77
2023-01-04T18:09:27.324Z,47.43
2023-01-04T18:14:39.193Z,47.37
2023-01-04T18:19:47.615Z,47.53
2023-01-04T18:29:59.381Z,47.37
2023-01-04T18:35:06.630Z,47.98
2023-01-04T18:40:14.973Z,47.93
2023-01-04T18:45:22.505Z,48.17
2023-01-04T18:50:29.147Z,48.05
2023-01-04T18:55:36.102Z,35.70
2023-01-04T19:00:43.048Z,47.50
2023-01-04T19:05:49.606Z,47.90
2023-01-04T19:16:02.089Z,49.07
2023-01-04T19:21:08.922Z,49.08
2023-01-04T19:26:15.498Z,48.37
2023-01-04T19:31:23.889Z,47.93
2023-01-04T19:36:31.414Z,48.13
2023-01-04T19:41:38.294Z,47.57
2023-01-04T19:46:45.380Z,47.80
2023-01-04T19:51:52.204Z,47.50
2023-01-04T19:56:58.590Z,48.10
2023-01-04T20:07:12.269Z,48.30
2023-01-04T20:12:20.815Z,48.07
2023-01-04T20:17:27.055Z,47.70
2023-01-04T20:22:34.864Z,48.45
2023-01-04T20:27:41.924Z,48.00
2023-01-04T20:32:48.246Z,48.33
2023-01-04T20:37:57.026Z,48.10
2023-01-04T20:43:21.393Z,48.50
2023-01-04T20:48:29.015Z,48.35
2023-01-04T20:53:36.914Z,48.47
2023-01-04T20:58:45.107Z,48.40
2023-01-04T21:03:54.323Z,47.83
2023-01-04T21:09:00.717Z,47.97
2023-01-04T21:14:07.816Z,48.58
2023-01-04T21:19:14.984Z,48.63
2023-01-04T21:24:23.434Z,49.03
2023-01-04T21:29:29.913Z,48.75
2023-01-04T21:34:41.220Z,48.63
2023-01-04T21:39:47.358Z,48.93
2023-01-04T21:44:54.897Z,48.83
2023-01-04T21:50:01.976Z,50.03
2023-01-04T21:55:11.064Z,48.50
2023-01-04T22:00:18.174Z,49.10
2023-01-04T22:05:25.292Z,48.87
2023-01-04T22:10:31.457Z,48.73
2023-01-04T22:15:42.437Z,48.80
2023-01-04T22:20:49.277Z,48.72
2023-01-04T22:31:12.939Z,48.73
2023-01-04T22:36:23.211Z,48.33
2023-01-04T22:41:29.883Z,48.60
2023-01-04T22:46:37.677Z,48.53
2023-01-04T22:51:44.867Z,49.27
2023-01-04T22:56:51.455Z,48.83
2023-01-04T23:01:58.544Z,50.15
2023-01-04T23:07:05.638Z,49.10
2023-01-04T23:12:12.224Z,48.53
2023-01-04T23:17:18.588Z,48.42
2023-01-04T23:22:26.761Z,48.68
2023-01-04T23:27:33.444Z,49.10
2023-01-04T23:32:41.037Z,50.10
2023-01-04T23:37:47.828Z,49.77
2023-01-04T23:42:56.399Z,49.60
2023-01-04T23:48:02.703Z,48.87
2023-01-04T23:53:10.552Z,48.70
2023-01-04T23:58:16.726Z,48.67
